createdAt,value
2023-04-16T00:01:26.176Z,99.90
2023-04-16T00:03:53.341Z,99.90
2023-04-16T00:06:20.689Z,99.90
2023-04-16T00:08:47.927Z,99.90
2023-04-16T00:11:16.532Z,99.90
2023-04-16T00:13:43.769Z,99.90
2023-04-16T00:16:10.911Z,99.90
2023-04-16T00:18:38.025Z,99.90
2023-04-16T00:21:07.780Z,99.90
2023-04-16T00:23:34.899Z,99.90
2023-04-16T00:26:04.444Z,99.90
2023-04-16T00:28:31.397Z,99.90
2023-04-16T00:30:58.474Z,99.90
2023-04-16T00:33:30.079Z,99.90
2023-04-16T00:35:57.130Z,99.90
2023-04-16T00:38:24.046Z,99.90
2023-04-16T00:40:53.543Z,99.90
2023-04-16T00:43:25.560Z,99.90
2023-04-16T00:45:56.639Z,99.90
2023-04-16T00:48:23.759Z,99.90
2023-04-16T00:50:56.562Z,99.90
2023-04-16T00:53:26.083Z,99.90
2023-04-16T00:55:53.137Z,99.90
2023-04-16T00:58:20.401Z,99.90
2023-04-16T01:00:53.508Z,99.90
2023-04-16T01:03:20.823Z,99.90
2023-04-16T01:05:50.982Z,99.90
2023-04-16T01:08:24.407Z,99.90
2023-04-16T01:10:51.433Z,99.90
2023-04-16T01:13:18.148Z,99.90
2023-04-16T01:15:45.049Z,99.90
2023-04-16T01:18:21.550Z,99.90
2023-04-16T01:20:49.662Z,99.90
2023-04-16T01:23:18.745Z,99.90
2023-04-16T01:25:46.397Z,99.90
2023-04-16T01:28:13.504Z,99.90
2023-04-16T01:30:40.397Z,99.90
2023-04-16T01:33:08.255Z,99.90
2023-04-16T01:35:35.501Z,99.90
2023-04-16T01:38:02.906Z,99.90
2023-04-16T01:40:29.896Z,99.90
2023-04-16T01:42:56.767Z,99.90
2023-04-16T01:45:23.556Z,99.90
2023-04-16T01:47:51.380Z,99.90
2023-04-16T01:50:18.933Z,99.90
2023-04-16T01:52:45.965Z,99.90
2023-04-16T01:55:16.117Z,99.90
2023-04-16T01:57:43.051Z,99.90
2023-04-16T02:00:10.199Z,99.90
2023-04-16T02:02:37.276Z,99.90
2023-04-16T02:05:04.488Z,99.90
2023-04-16T02:07:34.389Z,99.90
2023-04-16T02:10:01.312Z,99.90
2023-04-16T02:12:28.187Z,99.90
2023-04-16T02:14:56.401Z,99.90
2023-04-16T02:17:23.219Z,99.90
2023-04-16T02:19:50.200Z,99.90
2023-04-16T02:22:17.124Z,99.90
2023-04-16T02:24:44.034Z,99.90
2023-04-16T02:27:12.134Z,99.90
2023-04-16T02:29:39.165Z,99.90
2023-04-16T02:32:06.733Z,99.90
2023-04-16T02:34:34.912Z,99.90
2023-04-16T02:37:01.944Z,99.90
2023-04-16T02:39:28.891Z,99.90
2023-04-16T02:41:56.340Z,99.90
2023-04-16T02:44:23.366Z,99.90
2023-04-16T02:46:50.484Z,99.90
2023-04-16T02:49:17.460Z,99.90
2023-04-16T02:51:44.414Z,99.90
2023-04-16T02:54:13.932Z,99.90
2023-04-16T02:56:40.997Z,99.90
2023-04-16T02:59:08.176Z,99.90
2023-04-16T03:01:35.276Z,99.90
2023-04-16T03:04:02.420Z,99.90
2023-04-16T03:06:29.272Z,99.90
2023-04-16T03:08:56.336Z,99.90
2023-04-16T03:11:23.863Z,99.90
2023-04-16T03:13:50.907Z,99.90
2023-04-16T03:16:17.919Z,99.90
2023-04-16T03:18:47.954Z,99.90
2023-04-16T03:21:15.029Z,99.90
2023-04-16T03:23:42.167Z,99.90
2023-04-16T03:26:10.847Z,99.90
2023-04-16T03:28:37.925Z,99.90
2023-04-16T03:31:05.216Z,99.90
2023-04-16T03:33:39.576Z,99.90
2023-04-16T03:36:06.910Z,99.90
2023-04-16T03:38:33.853Z,99.90
2023-04-16T03:41:01.134Z,99.90
2023-04-16T03:43:28.006Z,99.90
2023-04-16T03:45:55.270Z,99.90
2023-04-16T03:48:22.123Z,99.90
2023-04-16T03:50:49.077Z,99.90
2023-04-16T03:53:16.289Z,99.90
2023-04-16T03:55:43.196Z,99.90
2023-04-16T03:58:10.290Z,99.90
2023-04-16T04:00:37.247Z,99.90
2023-04-16T04:03:04.380Z,99.90
2023-04-16T04:05:31.414Z,99.90
2023-04-16T04:07:58.271Z,99.90
2023-04-16T04:10:25.671Z,99.90
2023-04-16T04:12:53.180Z,99.90
2023-04-16T04:15:20.043Z,99.90
2023-04-16T04:17:51.187Z,99.90
2023-04-16T04:20:19.313Z,99.90
2023-04-16T04:22:46.360Z,99.90
2023-04-16T04:25:13.288Z,99.90
2023-04-16T04:27:40.165Z,99.90
2023-04-16T04:30:07.951Z,99.90
2023-04-16T04:32:37.400Z,99.90
2023-04-16T04:35:04.415Z,99.90
2023-04-16T04:37:32.029Z,99.90
2023-04-16T04:39:58.952Z,99.90
2023-04-16T04:42:26.357Z,99.90
2023-04-16T04:44:53.318Z,99.90
2023-04-16T04:47:20.302Z,99.90
2023-04-16T04:49:47.297Z,99.90
2023-04-16T04:52:14.326Z,99.90
2023-04-16T04:54:41.977Z,99.90
2023-04-16T04:57:09.142Z,99.90
2023-04-16T04:59:36.451Z,99.90
2023-04-16T05:02:03.701Z,99.90
2023-04-16T05:04:31.424Z,99.90
2023-04-16T05:07:02.632Z,99.90
2023-04-16T05:09:29.771Z,99.90
2023-04-16T05:11:58.968Z,99.90
2023-04-16T05:14:26.585Z,99.90
2023-04-16T05:16:54.387Z,99.90
2023-04-16T05:19:21.370Z,99.90
2023-04-16T05:21:48.315Z,99.90
2023-04-16T05:24:15.265Z,99.90
2023-04-16T05:26:42.150Z,99.90
2023-04-16T05:29:14.914Z,99.90
2023-04-16T05:31:41.946Z,99.90
2023-04-16T05:34:09.165Z,99.90
2023-04-16T05:36:36.506Z,99.90
2023-04-16T05:39:06.207Z,99.90
2023-04-16T05:41:33.354Z,99.90
2023-04-16T05:44:09.355Z,99.90
2023-04-16T05:46:48.354Z,99.90
2023-04-16T05:49:15.843Z,99.90
2023-04-16T05:51:42.811Z,99.90
2023-04-16T05:54:09.996Z,99.90
2023-04-16T05:56:41.919Z,99.90
2023-04-16T05:59:11.984Z,99.90
2023-04-16T06:01:39.234Z,99.90
2023-04-16T06:04:06.648Z,99.90
2023-04-16T06:06:33.929Z,99.90
2023-04-16T06:09:17.889Z,99.90
2023-04-16T06:11:45.125Z,99.90
2023-04-16T06:14:12.121Z,99.90
2023-04-16T06:16:39.119Z,99.90
2023-04-16T06:19:06.339Z,99.90
2023-04-16T06:21:38.076Z,99.90
2023-04-16T06:25:03.863Z,99.90
2023-04-16T06:28:00.198Z,99.90
2023-04-16T06:31:02.612Z,99.90
2023-04-16T06:33:27.893Z,99.90
2023-04-16T06:36:41.827Z,99.90
2023-04-16T06:39:06.125Z,99.90
2023-04-16T06:41:39.145Z,99.90
2023-04-16T06:44:12.855Z,99.90
2023-04-16T06:46:52.729Z,99.90
2023-04-16T06:50:23.177Z,99.90
2023-04-16T07:10:23.715Z,99.90
2023-04-16T07:12:54.621Z,99.90
2023-04-16T07:15:33.807Z,99.90
2023-04-16T07:25:00.896Z,99.90
2023-04-16T07:27:34.821Z,99.90
2023-04-16T07:45:58.901Z,99.90
2023-04-16T07:49:38.627Z,99.90
2023-04-16T07:56:11.294Z,99.90
2023-04-16T07:59:18.407Z,99.80
2023-04-16T08:02:13.448Z,99.70
2023-04-16T08:22:31.256Z,99.10
2023-04-16T08:25:48.835Z,99.20
2023-04-16T08:31:11.334Z,99.10
2023-04-16T08:33:49.263Z,98.60
2023-04-16T08:39:13.488Z,98.20
2023-04-16T08:41:54.459Z,98.20
2023-04-16T08:44:25.961Z,98.10
2023-04-16T08:47:08.198Z,98.00
2023-04-16T08:49:47.038Z,97.80
2023-04-16T08:52:22.250Z,97.50
2023-04-16T08:55:11.659Z,97.40
2023-04-16T08:58:26.718Z,96.90
2023-04-16T09:03:52.577Z,97.10
2023-04-16T09:06:38.889Z,96.70
2023-04-16T09:09:10.484Z,96.30
2023-04-16T09:14:41.989Z,96.20
2023-04-16T09:17:09.240Z,95.60
2023-04-16T09:19:40.063Z,95.50
2023-04-16T09:22:19.204Z,95.10
2023-04-16T09:24:46.528Z,94.80
2023-04-16T09:27:15.851Z,94.90
2023-04-16T09:29:43.290Z,94.60
2023-04-16T09:32:13.993Z,94.40
2023-04-16T09:34:58.124Z,94.30
2023-04-16T09:37:26.172Z,93.90
2023-04-16T09:40:04.150Z,93.80
2023-04-16T09:42:33.355Z,93.30
2023-04-16T09:45:22.006Z,93.30
2023-04-16T09:48:33.741Z,93.00
2023-04-16T09:51:17.059Z,92.90
2023-04-16T09:53:44.153Z,92.60
2023-04-16T09:56:12.123Z,92.70
2023-04-16T09:58:39.080Z,92.50
2023-04-16T10:01:22.907Z,92.40
2023-04-16T10:03:49.987Z,92.10
2023-04-16T10:06:19.652Z,92.10
2023-04-16T10:08:50.706Z,92.00
2023-04-16T10:11:17.771Z,91.90
2023-04-16T10:13:45.013Z,91.70
2023-04-16T10:16:12.253Z,91.50
2023-04-16T10:18:43.005Z,91.20
2023-04-16T10:21:12.738Z,91.10
2023-04-16T10:23:40.408Z,91.20
2023-04-16T10:26:10.145Z,90.90
2023-04-16T10:28:39.656Z,90.80
2023-04-16T10:31:08.338Z,90.80
2023-04-16T10:33:36.540Z,90.60
2023-04-16T10:36:17.359Z,90.50
2023-04-16T10:38:48.863Z,90.20
2023-04-16T10:41:15.892Z,90.20
2023-04-16T10:43:50.251Z,89.60
2023-04-16T10:46:33.897Z,89.40
2023-04-16T10:49:01.899Z,89.00
2023-04-16T10:51:29.056Z,89.30
2023-04-16T10:53:57.676Z,89.00
2023-04-16T10:56:26.332Z,88.60
2023-04-16T10:58:55.368Z,87.90
2023-04-16T11:01:38.612Z,87.70
2023-04-16T11:04:21.332Z,86.90
2023-04-16T11:07:00.941Z,86.10
2023-04-16T11:09:52.469Z,85.60
2023-04-16T11:12:20.829Z,85.10
2023-04-16T11:14:51.194Z,86.00
2023-04-16T11:17:22.749Z,85.40
2023-04-16T11:19:49.802Z,85.80
2023-04-16T11:22:17.547Z,86.00
2023-04-16T11:24:45.690Z,85.00
2023-04-16T11:27:16.226Z,84.70
2023-04-16T11:29:45.063Z,84.30
2023-04-16T11:32:26.228Z,84.50
2023-04-16T11:35:09.633Z,83.60
2023-04-16T11:37:37.700Z,84.10
2023-04-16T11:40:11.000Z,84.40
2023-04-16T11:42:40.616Z,84.00
2023-04-16T11:45:08.657Z,84.00
2023-04-16T11:47:52.123Z,83.50
2023-04-16T11:50:21.036Z,82.90
2023-04-16T11:52:48.122Z,83.40
2023-04-16T11:55:15.580Z,83.00
2023-04-16T11:57:42.706Z,82.50
2023-04-16T12:00:15.968Z,81.70
2023-04-16T12:02:44.918Z,81.40
2023-04-16T12:05:39.083Z,81.90
2023-04-16T12:08:10.340Z,81.20
2023-04-16T12:10:38.646Z,81.40
2023-04-16T12:13:15.734Z,80.80
2023-04-16T12:15:46.430Z,79.80
2023-04-16T12:18:14.355Z,80.20
2023-04-16T12:20:45.079Z,80.50
2023-04-16T12:23:25.985Z,80.30
2023-04-16T12:25:55.322Z,79.90
2023-04-16T12:28:32.758Z,79.70
2023-04-16T12:30:59.928Z,79.00
2023-04-16T12:33:40.556Z,80.30
2023-04-16T12:36:20.144Z,79.30
2023-04-16T12:38:47.288Z,79.00
2023-04-16T12:41:14.100Z,78.90
2023-04-16T12:43:42.434Z,78.50
2023-04-16T12:46:09.724Z,78.10
2023-04-16T12:48:36.719Z,77.60
2023-04-16T12:51:03.801Z,77.60
2023-04-16T12:53:30.892Z,77.20
2023-04-16T12:55:57.701Z,77.00
2023-04-16T12:58:24.497Z,77.30
2023-04-16T13:00:51.591Z,77.20
2023-04-16T13:03:25.954Z,76.80
2023-04-16T13:05:53.051Z,76.60
2023-04-16T13:08:20.163Z,76.50
2023-04-16T13:10:47.076Z,76.00
2023-04-16T13:13:16.612Z,75.60
2023-04-16T13:15:43.413Z,75.20
2023-04-16T13:18:10.446Z,74.80
2023-04-16T13:20:39.994Z,74.10
2023-04-16T13:23:07.366Z,73.20
2023-04-16T13:25:34.199Z,72.00
2023-04-16T13:28:01.396Z,71.60
2023-04-16T13:30:29.450Z,71.00
2023-04-16T13:32:56.886Z,70.50
2023-04-16T13:35:26.859Z,71.00
2023-04-16T13:37:53.699Z,71.50
2023-04-16T13:40:20.827Z,70.20
2023-04-16T13:42:47.715Z,69.90
2023-04-16T13:45:14.741Z,70.90
2023-04-16T13:47:44.590Z,72.10
2023-04-16T13:50:12.336Z,72.30
2023-04-16T13:52:45.478Z,72.40
2023-04-16T13:55:14.205Z,72.50
2023-04-16T13:57:43.431Z,72.70
2023-04-16T14:00:13.217Z,72.10
2023-04-16T14:02:50.693Z,72.10
2023-04-16T14:05:17.991Z,71.20
2023-04-16T14:07:45.647Z,71.20
2023-04-16T14:10:15.038Z,71.40
2023-04-16T14:12:42.738Z,71.00
2023-04-16T14:15:10.436Z,71.20
2023-04-16T14:17:37.716Z,70.40
2023-04-16T14:20:07.536Z,69.90
2023-04-16T14:22:34.710Z,69.70
2023-04-16T14:25:01.621Z,69.60
2023-04-16T14:27:28.780Z,69.50
2023-04-16T14:29:58.748Z,69.70
2023-04-16T14:32:26.159Z,70.00
2023-04-16T14:34:53.323Z,69.80
2023-04-16T14:37:20.216Z,69.80
2023-04-16T14:39:48.405Z,70.10
2023-04-16T14:42:15.258Z,70.50
2023-04-16T14:44:42.140Z,70.70
2023-04-16T14:47:14.425Z,70.80
2023-04-16T14:49:41.482Z,70.40
2023-04-16T14:52:11.186Z,70.70
2023-04-16T14:54:38.212Z,71.00
2023-04-16T14:57:04.987Z,71.00
2023-04-16T14:59:32.385Z,71.00
2023-04-16T15:01:59.527Z,71.10
2023-04-16T15:04:29.580Z,71.10
2023-04-16T15:06:59.288Z,71.10
2023-04-16T15:09:27.485Z,71.30
2023-04-16T15:11:54.682Z,71.30
2023-04-16T15:14:24.946Z,71.80
2023-04-16T15:16:51.859Z,71.80
2023-04-16T15:19:18.816Z,72.00
2023-04-16T15:21:47.516Z,72.10
2023-04-16T15:24:18.595Z,72.10
2023-04-16T15:26:45.452Z,71.50
2023-04-16T15:29:14.574Z,71.80
2023-04-16T15:31:43.961Z,71.90
2023-04-16T15:34:13.356Z,72.20
2023-04-16T15:36:40.527Z,72.30
2023-04-16T15:39:07.526Z,72.40
2023-04-16T15:41:53.382Z,72.70
2023-04-16T15:44:26.872Z,72.90
2023-04-16T15:46:56.290Z,73.20
2023-04-16T15:49:27.931Z,73.20
2023-04-16T15:51:54.909Z,73.40
2023-04-16T15:54:21.777Z,73.30
2023-04-16T15:56:48.622Z,73.20
2023-04-16T15:59:20.930Z,73.50
2023-04-16T16:01:48.572Z,73.60
2023-04-16T16:04:15.522Z,73.70
2023-04-16T16:06:42.757Z,73.80
2023-04-16T16:09:10.493Z,74.10
2023-04-16T16:11:38.448Z,74.30
2023-04-16T16:14:07.805Z,74.40
2023-04-16T16:16:35.251Z,74.30
2023-04-16T16:19:18.337Z,74.90
2023-04-16T16:21:45.456Z,74.40
2023-04-16T16:24:15.208Z,74.50
2023-04-16T16:26:42.253Z,74.50
2023-04-16T16:29:09.461Z,74.70
2023-04-16T16:31:36.575Z,74.80
2023-04-16T16:34:03.537Z,75.10
2023-04-16T16:36:32.388Z,75.30
2023-04-16T16:38:59.208Z,75.40
2023-04-16T16:41:31.066Z,75.40
2023-04-16T16:44:00.566Z,76.00
2023-04-16T16:46:27.395Z,75.50
2023-04-16T16:48:54.333Z,75.50
2023-04-16T16:51:21.638Z,75.60
2023-04-16T16:53:48.529Z,76.30
2023-04-16T16:56:18.407Z,76.20
2023-04-16T16:58:45.256Z,76.40
2023-04-16T17:01:12.134Z,76.80
2023-04-16T17:03:39.571Z,77.00
2023-04-16T17:06:06.988Z,77.20
2023-04-16T17:08:33.729Z,77.40
2023-04-16T17:11:05.261Z,77.50
2023-04-16T17:13:32.951Z,77.40
2023-04-16T17:15:59.901Z,77.60
2023-04-16T17:18:26.977Z,77.70
2023-04-16T17:20:53.979Z,77.70
2023-04-16T17:23:21.330Z,77.90
2023-04-16T17:25:50.756Z,77.90
2023-04-16T17:28:17.838Z,78.10
2023-04-16T17:30:45.224Z,78.30
2023-04-16T17:33:13.587Z,78.30
2023-04-16T17:38:57.431Z,78.40
2023-04-16T17:41:24.552Z,78.70
2023-04-16T17:43:51.613Z,79.00
2023-04-16T17:46:21.844Z,79.00
2023-04-16T17:48:49.009Z,78.80
2023-04-16T17:51:18.742Z,79.20
2023-04-16T17:53:45.585Z,78.30
2023-04-16T17:56:13.317Z,78.40
2023-04-16T17:58:40.269Z,78.50
2023-04-16T18:01:07.308Z,78.60
2023-04-16T18:03:34.551Z,78.60
2023-04-16T18:06:01.524Z,78.50
2023-04-16T18:08:31.261Z,78.60
2023-04-16T18:10:58.277Z,78.90
2023-04-16T18:13:25.505Z,79.20
2023-04-16T18:15:53.221Z,79.30
2023-04-16T18:18:21.534Z,79.40
2023-04-16T18:20:48.551Z,79.60
2023-04-16T18:23:15.441Z,79.70
2023-04-16T18:25:42.416Z,79.70
2023-04-16T18:28:24.608Z,79.90
2023-04-16T18:30:59.130Z,79.90
2023-04-16T18:33:58.391Z,80.10
2023-04-16T18:36:57.825Z,80.30
2023-04-16T18:39:24.885Z,80.50
2023-04-16T18:41:52.284Z,80.80
2023-04-16T18:44:23.393Z,80.90
2023-04-16T18:49:36.222Z,81.00
2023-04-16T18:52:03.388Z,81.10
2023-04-16T18:54:30.296Z,81.20
2023-04-16T18:56:59.061Z,81.30
2023-04-16T18:59:30.526Z,81.50
2023-04-16T19:01:57.519Z,81.70
2023-04-16T19:04:28.787Z,81.80
2023-04-16T19:06:58.530Z,82.00
2023-04-16T19:09:26.574Z,82.20
2023-04-16T19:11:53.379Z,82.30
2023-04-16T19:14:25.710Z,82.40
2023-04-16T19:16:55.958Z,82.60
2023-04-16T19:19:22.891Z,82.70
2023-04-16T19:21:49.920Z,82.90
2023-04-16T19:24:16.986Z,83.10
2023-04-16T19:26:43.755Z,83.20
2023-04-16T19:29:11.048Z,83.40
2023-04-16T19:31:38.274Z,83.60
2023-04-16T19:34:05.873Z,83.80
2023-04-16T19:36:32.945Z,83.90
2023-04-16T19:39:01.138Z,84.10
2023-04-16T19:41:28.272Z,84.30
2023-04-16T19:43:55.816Z,84.50
2023-04-16T19:46:35.910Z,84.70
2023-04-16T19:49:29.179Z,84.80
2023-04-16T19:52:52.523Z,84.90
2023-04-16T19:58:33.217Z,85.50
2023-04-16T20:01:05.816Z,85.50
2023-04-16T20:03:43.220Z,86.00
2023-04-16T20:06:13.221Z,86.00
2023-04-16T20:08:41.479Z,86.30
2023-04-16T20:11:08.763Z,86.30
2023-04-16T20:13:37.695Z,86.50
2023-04-16T20:16:06.056Z,86.70
2023-04-16T20:18:32.920Z,86.80
2023-04-16T20:21:04.044Z,86.90
2023-04-16T20:23:32.588Z,87.00
2023-04-16T20:25:59.628Z,87.20
2023-04-16T20:28:26.551Z,87.40
2023-04-16T20:30:54.334Z,87.50
2023-04-16T20:33:21.588Z,87.60
2023-04-16T20:35:49.219Z,87.70
2023-04-16T20:38:16.238Z,87.80
2023-04-16T20:40:45.283Z,88.00
2023-04-16T20:43:14.728Z,88.10
2023-04-16T20:45:46.021Z,88.30
2023-04-16T20:48:13.414Z,88.40
2023-04-16T20:50:40.835Z,88.50
2023-04-16T20:53:15.529Z,88.60
2023-04-16T20:55:46.157Z,88.60
2023-04-16T20:58:13.195Z,88.80
2023-04-16T21:00:45.517Z,89.00
2023-04-16T21:03:17.706Z,89.00
2023-04-16T21:05:53.426Z,89.10
2023-04-16T21:08:21.180Z,89.20
2023-04-16T21:10:48.472Z,89.30
2023-04-16T21:13:17.059Z,89.50
2023-04-16T21:15:47.458Z,89.50
2023-04-16T21:18:14.671Z,89.60
2023-04-16T21:20:41.640Z,89.70
2023-04-16T21:23:18.569Z,89.80
2023-04-16T21:25:45.748Z,89.80
2023-04-16T21:28:15.279Z,90.00
2023-04-16T21:30:42.466Z,90.00
2023-04-16T21:33:09.567Z,90.00
2023-04-16T21:35:39.914Z,90.10
2023-04-16T21:38:07.247Z,90.10
2023-04-16T21:40:35.124Z,90.10
2023-04-16T21:43:49.989Z,90.40
2023-04-16T21:46:33.072Z,90.10
2023-04-16T21:49:12.933Z,90.20
2023-04-16T21:51:40.820Z,90.40
2023-04-16T21:54:07.903Z,90.30
2023-04-16T21:56:35.276Z,90.40
2023-04-16T21:59:02.825Z,90.40
2023-04-16T22:01:33.392Z,90.40
2023-04-16T22:04:02.314Z,90.50
2023-04-16T22:06:39.985Z,90.50
2023-04-16T22:09:15.775Z,90.60
2023-04-16T22:11:46.563Z,90.60
2023-04-16T22:17:13.206Z,90.70
2023-04-16T22:19:59.263Z,90.80
2023-04-16T22:22:32.513Z,90.80
2023-04-16T22:25:05.385Z,90.90
2023-04-16T22:27:35.553Z,91.00
2023-04-16T22:30:30.997Z,91.10
2023-04-16T22:32:58.187Z,91.10
2023-04-16T22:35:45.490Z,91.20
2023-04-16T22:38:48.941Z,91.30
2023-04-16T22:41:16.523Z,91.30
2023-04-16T22:43:57.095Z,91.40
2023-04-16T22:47:00.835Z,91.40
2023-04-16T22:50:00.517Z,91.40
2023-04-16T22:52:27.885Z,91.60
2023-04-16T22:54:54.850Z,91.60
2023-04-16T22:57:25.955Z,91.70
2023-04-16T22:59:59.446Z,91.80
2023-04-16T23:03:00.982Z,91.80
2023-04-16T23:05:28.283Z,91.80
2023-04-16T23:08:22.482Z,91.90
2023-04-16T23:10:52.912Z,91.90
2023-04-16T23:13:19.967Z,92.00
2023-04-16T23:15:47.510Z,92.10
2023-04-16T23:18:21.685Z,92.10
2023-04-16T23:20:53.988Z,92.10
2023-04-16T23:23:26.360Z,92.20
2023-04-16T23:25:56.120Z,92.20
2023-04-16T23:28:23.309Z,92.20
2023-04-16T23:30:53.590Z,92.30
2023-04-16T23:33:20.878Z,92.30
2023-04-16T23:35:48.134Z,92.30
2023-04-16T23:38:24.125Z,92.40
2023-04-16T23:40:51.378Z,92.40
2023-04-16T23:43:21.032Z,92.40
2023-04-16T23:45:48.040Z,92.50
2023-04-16T23:48:15.028Z,92.50
2023-04-16T23:50:42.106Z,92.50
2023-04-16T23:53:09.225Z,92.60
2023-04-16T23:55:36.290Z,92.90
2023-04-16T23:58:03.574Z,92.60
